createdAt,value
2022-11-22T00:02:25.436Z,37.88
2022-11-22T00:05:15.127Z,40.67
2022-11-22T00:08:04.854Z,52.55
2022-11-22T00:10:55.746Z,78.75
2022-11-22T00:13:45.227Z,45.97
2022-11-22T00:16:35.215Z,28.35
2022-11-22T00:19:24.717Z,30.35
2022-11-22T00:22:14.509Z,23.38
2022-11-22T00:25:07.122Z,29.80
2022-11-22T00:27:58.242Z,35.80
2022-11-22T00:30:47.674Z,50.40
2022-11-22T00:33:37.079Z,47.47
2022-11-22T00:36:26.808Z,41.78
2022-11-22T00:39:16.216Z,35.22
2022-11-22T00:42:06.100Z,31.60
2022-11-22T00:44:57.036Z,34.72
2022-11-22T00:47:46.422Z,31.60
2022-11-22T00:50:35.793Z,28.90
2022-11-22T00:53:25.433Z,26.17
2022-11-22T00:56:14.876Z,25.98
2022-11-22T00:59:04.163Z,47.55
2022-11-22T01:01:55.264Z,43.78
2022-11-22T01:04:44.531Z,53.15
2022-11-22T01:07:34.131Z,57.70
2022-11-22T01:10:23.643Z,62.35
2022-11-22T01:13:14.113Z,62.65
2022-11-22T01:16:04.501Z,57.15
2022-11-22T01:18:55.143Z,54.25
2022-11-22T01:21:44.459Z,56.35
2022-11-22T01:24:33.735Z,56.33
2022-11-22T01:27:23.103Z,54.13
2022-11-22T01:30:13.876Z,49.58
2022-11-22T01:33:03.132Z,54.53
2022-11-22T01:35:54.334Z,51.53
2022-11-22T01:38:43.774Z,46.90
2022-11-22T01:41:33.364Z,45.03
2022-11-22T01:44:26.582Z,44.85
2022-11-22T01:47:19.140Z,52.28
2022-11-22T01:50:16.708Z,51.72
2022-11-22T01:53:15.205Z,41.58
2022-11-22T01:56:08.729Z,37.30
2022-11-22T01:59:04.691Z,41.72
2022-11-22T02:01:55.522Z,42.85
2022-11-22T02:04:51.318Z,37.25
2022-11-22T02:07:50.624Z,37.97
2022-11-22T02:10:49.023Z,43.50
2022-11-22T02:13:43.733Z,43.45
2022-11-22T02:16:33.215Z,42.20
2022-11-22T02:19:34.605Z,41.00
2022-11-22T02:22:34.543Z,41.75
2022-11-22T02:25:31.480Z,40.38
2022-11-22T02:28:22.245Z,44.05
2022-11-22T02:31:31.565Z,39.05
2022-11-22T02:34:20.894Z,40.92
2022-11-22T02:37:11.064Z,39.22
2022-11-22T02:40:03.291Z,43.00
2022-11-22T02:43:00.085Z,40.37
2022-11-22T02:45:50.922Z,39.15
2022-11-22T02:48:43.828Z,41.83
2022-11-22T02:51:33.195Z,40.40
2022-11-22T02:54:22.649Z,41.92
2022-11-22T02:57:12.195Z,41.50
2022-11-22T03:00:01.488Z,44.33
2022-11-22T03:02:52.840Z,40.65
2022-11-22T03:05:42.324Z,44.30
2022-11-22T03:08:31.686Z,36.65
2022-11-22T03:11:21.081Z,38.13
2022-11-22T03:14:10.455Z,38.88
2022-11-22T03:16:59.726Z,37.83
2022-11-22T03:19:50.500Z,34.50
2022-11-22T03:22:39.801Z,41.38
2022-11-22T03:25:29.557Z,35.60
2022-11-22T03:28:18.874Z,41.08
2022-11-22T03:31:08.570Z,38.42
2022-11-22T03:33:58.398Z,34.25
2022-11-22T03:36:49.252Z,37.38
2022-11-22T03:39:38.769Z,36.65
2022-11-22T03:42:28.168Z,39.85
2022-11-22T03:45:17.691Z,38.15
2022-11-22T03:48:07.473Z,39.15
2022-11-22T03:51:05.011Z,35.08
2022-11-22T03:53:56.003Z,34.05
2022-11-22T03:56:45.630Z,32.58
2022-11-22T03:59:35.095Z,36.58
2022-11-22T04:02:24.477Z,37.35
2022-11-22T04:05:13.988Z,37.42
2022-11-22T04:08:03.293Z,42.60
2022-11-22T04:10:54.630Z,33.78
2022-11-22T04:14:00.994Z,37.58
2022-11-22T04:16:50.244Z,38.67
2022-11-22T04:19:59.614Z,38.45
2022-11-22T04:22:56.833Z,36.13
2022-11-22T04:25:48.355Z,32.08
2022-11-22T04:29:09.283Z,34.83
2022-11-22T04:32:06.421Z,33.47
2022-11-22T04:34:55.951Z,32.40
2022-11-22T04:37:51.240Z,34.08
2022-11-22T04:40:41.382Z,34.28
2022-11-22T04:43:49.164Z,32.92
2022-11-22T04:46:39.905Z,38.55
2022-11-22T04:49:29.390Z,34.40
2022-11-22T04:52:35.934Z,34.67
2022-11-22T04:55:25.507Z,32.42
2022-11-22T04:58:15.660Z,32.22
2022-11-22T05:01:06.040Z,29.85
2022-11-22T05:03:56.697Z,29.33
2022-11-22T05:06:46.143Z,29.42
2022-11-22T05:09:35.427Z,27.75
2022-11-22T05:12:24.660Z,26.23
2022-11-22T05:15:14.367Z,24.17
2022-11-22T05:18:03.605Z,26.90
2022-11-22T05:20:54.806Z,26.92
2022-11-22T05:23:54.998Z,27.35
2022-11-22T05:26:44.394Z,27.20
2022-11-22T05:29:33.685Z,25.40
2022-11-22T05:32:22.936Z,26.10
2022-11-22T05:35:12.227Z,26.17
2022-11-22T05:38:02.846Z,27.02
2022-11-22T05:40:52.102Z,26.80
2022-11-22T05:43:42.214Z,25.25
2022-11-22T05:46:32.531Z,25.20
2022-11-22T05:49:21.825Z,27.88
2022-11-22T05:52:11.138Z,26.30
2022-11-22T05:55:01.930Z,26.83
2022-11-22T05:57:51.226Z,26.23
2022-11-22T06:00:40.501Z,32.28
2022-11-22T06:03:29.714Z,27.50
2022-11-22T06:06:19.521Z,27.08
2022-11-22T06:09:08.910Z,25.13
2022-11-22T06:12:00.088Z,27.70
2022-11-22T06:14:49.402Z,26.90
2022-11-22T06:17:38.811Z,25.95
2022-11-22T06:20:28.199Z,27.13
2022-11-22T06:23:17.616Z,27.10
2022-11-22T06:26:09.804Z,25.92
2022-11-22T06:29:00.736Z,33.80
2022-11-22T06:31:50.189Z,29.55
2022-11-22T06:34:39.588Z,33.40
2022-11-22T06:37:29.169Z,27.48
2022-11-22T06:40:19.109Z,25.52
2022-11-22T06:43:08.416Z,29.75
2022-11-22T06:46:00.144Z,25.50
2022-11-22T06:48:50.180Z,35.30
2022-11-22T06:51:39.503Z,28.80
2022-11-22T06:54:28.804Z,30.48
2022-11-22T06:57:18.184Z,39.75
2022-11-22T07:00:09.829Z,32.65
2022-11-22T07:03:00.477Z,38.05
2022-11-22T07:05:52.309Z,39.63
2022-11-22T07:08:42.542Z,42.75
2022-11-22T07:11:33.380Z,36.65
2022-11-22T07:14:22.730Z,30.38
2022-11-22T07:17:12.036Z,34.63
2022-11-22T07:20:02.758Z,35.53
2022-11-22T07:22:52.058Z,31.83
2022-11-22T07:25:44.501Z,34.20
2022-11-22T07:28:34.605Z,34.33
2022-11-22T07:31:23.973Z,36.50
2022-11-22T07:34:13.397Z,31.58
2022-11-22T07:37:08.870Z,31.95
2022-11-22T07:39:58.522Z,32.47
2022-11-22T07:42:47.972Z,34.15
2022-11-22T07:45:37.410Z,30.77
2022-11-22T07:48:26.776Z,34.88
2022-11-22T07:51:16.281Z,32.30
2022-11-22T07:54:07.101Z,50.15
2022-11-22T07:56:56.464Z,36.50
2022-11-22T07:59:46.060Z,43.03
2022-11-22T08:02:37.531Z,40.03
2022-11-22T08:05:27.803Z,51.25
2022-11-22T08:08:17.280Z,52.97
2022-11-22T08:11:09.244Z,44.95
2022-11-22T08:13:58.914Z,38.37
2022-11-22T08:16:48.215Z,40.88
2022-11-22T08:19:37.581Z,34.03
2022-11-22T08:22:26.972Z,37.40
2022-11-22T08:25:16.239Z,45.88
2022-11-22T08:28:07.565Z,35.15
2022-11-22T08:31:02.804Z,39.40
2022-11-22T08:33:55.150Z,38.95
2022-11-22T08:36:44.525Z,34.03
2022-11-22T08:39:33.909Z,43.28
2022-11-22T08:42:23.318Z,36.53
2022-11-22T08:45:14.120Z,45.65
2022-11-22T08:48:03.349Z,49.97
2022-11-22T08:50:53.834Z,49.15
2022-11-22T08:53:45.196Z,47.72
2022-11-22T08:56:34.712Z,46.53
2022-11-22T08:59:24.306Z,43.05
2022-11-22T09:02:15.065Z,43.60
2022-11-22T09:05:04.401Z,42.75
2022-11-22T09:11:03.390Z,38.20
2022-11-22T09:13:53.286Z,38.35
2022-11-22T09:16:42.894Z,36.22
2022-11-22T09:19:33.926Z,36.00
2022-11-22T09:22:28.207Z,31.73
2022-11-22T09:25:18.008Z,32.05
2022-11-22T09:28:07.377Z,37.05
2022-11-22T09:31:01.852Z,35.70
2022-11-22T09:33:51.748Z,49.90
2022-11-22T09:36:42.587Z,29.52
2022-11-22T09:39:32.109Z,27.02
2022-11-22T09:43:03.686Z,28.73
2022-11-22T09:46:30.216Z,33.33
2022-11-22T09:49:31.286Z,33.92
2022-11-22T09:52:29.321Z,32.10
2022-11-22T09:55:27.169Z,31.80
2022-11-22T09:58:29.261Z,31.88
2022-11-22T10:01:22.802Z,34.65
2022-11-22T10:04:18.568Z,26.92
2022-11-22T10:07:15.852Z,30.92
2022-11-22T10:10:13.087Z,39.08
2022-11-22T10:13:07.775Z,32.85
2022-11-22T10:16:04.818Z,30.73
2022-11-22T10:19:02.233Z,30.90
2022-11-22T10:21:51.728Z,32.13
2022-11-22T10:24:41.645Z,30.90
2022-11-22T10:27:34.107Z,32.33
2022-11-22T10:30:23.475Z,34.80
2022-11-22T10:33:20.111Z,31.70
2022-11-22T10:36:28.583Z,29.25
2022-11-22T10:39:34.699Z,36.10
2022-11-22T10:42:59.019Z,36.25
2022-11-22T10:45:57.370Z,37.78
2022-11-22T10:48:56.254Z,36.85
2022-11-22T10:51:58.556Z,35.83
2022-11-22T10:54:57.510Z,36.80
2022-11-22T10:58:01.110Z,38.40
2022-11-22T11:00:58.714Z,41.53
2022-11-22T11:03:52.536Z,37.92
2022-11-22T11:07:15.415Z,45.90
2022-11-22T11:10:20.356Z,37.90
2022-11-22T11:13:30.451Z,34.25
2022-11-22T11:16:23.881Z,36.13
2022-11-22T11:19:19.942Z,37.83
2022-11-22T11:22:36.031Z,47.20
2022-11-22T11:25:31.450Z,51.53
2022-11-22T11:28:24.895Z,35.95
2022-11-22T11:31:15.886Z,35.75
2022-11-22T11:34:22.428Z,39.20
2022-11-22T11:37:33.611Z,44.00
2022-11-22T11:40:31.333Z,34.15
2022-11-22T11:43:24.434Z,100.03
2022-11-22T11:46:19.930Z,49.58
2022-11-22T11:49:13.038Z,24.35
2022-11-22T11:52:06.569Z,23.65
2022-11-22T11:54:59.038Z,28.73
2022-11-22T11:57:49.088Z,31.58
2022-11-22T12:00:41.240Z,25.08
2022-11-22T12:03:32.419Z,43.67
2022-11-22T12:06:21.726Z,35.55
2022-11-22T12:09:31.599Z,50.78
2022-11-22T12:12:44.334Z,57.10
2022-11-22T12:15:48.177Z,23.03
2022-11-22T12:18:47.531Z,27.77
2022-11-22T12:21:48.676Z,27.25
2022-11-22T12:25:09.777Z,25.90
2022-11-22T12:27:53.910Z,19.80
2022-11-22T12:30:46.387Z,20.27
2022-11-22T12:33:41.295Z,29.30
2022-11-22T12:36:39.713Z,24.25
2022-11-22T12:39:31.925Z,31.20
2022-11-22T12:42:29.953Z,29.90
2022-11-22T12:45:29.395Z,29.30
2022-11-22T12:48:26.817Z,25.05
2022-11-22T12:51:27.419Z,30.98
2022-11-22T12:54:22.221Z,31.10
2022-11-22T12:57:22.196Z,23.80
2022-11-22T13:00:18.365Z,42.00
2022-11-22T13:03:15.214Z,26.88
2022-11-22T13:06:10.164Z,30.33
2022-11-22T13:09:04.469Z,29.58
2022-11-22T13:12:01.366Z,47.00
2022-11-22T13:14:55.335Z,26.63
2022-11-22T13:17:44.982Z,82.72
2022-11-22T13:20:42.964Z,27.77
2022-11-22T13:24:06.333Z,41.70
2022-11-22T13:27:10.544Z,29.77
2022-11-22T13:30:03.068Z,56.08
2022-11-22T13:32:55.366Z,33.58
2022-11-22T13:35:44.777Z,41.88
2022-11-22T13:38:38.303Z,37.53
2022-11-22T13:41:32.559Z,33.50
2022-11-22T13:44:39.500Z,43.80
2022-11-22T13:47:43.899Z,32.38
2022-11-22T13:51:03.821Z,52.60
2022-11-22T13:54:41.489Z,40.45
2022-11-22T13:57:38.011Z,38.80
2022-11-22T14:00:48.556Z,55.00
2022-11-22T14:03:43.377Z,54.08
2022-11-22T14:06:33.180Z,140.32
2022-11-22T14:09:41.670Z,34.10
2022-11-22T14:13:22.278Z,39.45
2022-11-22T14:16:29.314Z,48.55
2022-11-22T14:19:53.478Z,40.70
2022-11-22T14:22:57.140Z,41.38
2022-11-22T14:26:13.000Z,47.90
2022-11-22T14:30:06.000Z,46.38
2022-11-22T14:33:05.106Z,42.58
2022-11-22T14:36:17.623Z,47.85
2022-11-22T14:40:01.748Z,52.78
2022-11-22T14:45:53.367Z,41.78
2022-11-22T14:48:52.523Z,47.42
2022-11-22T14:51:43.286Z,50.70
2022-11-22T14:54:45.343Z,62.00
2022-11-22T14:57:38.042Z,73.18
2022-11-22T15:00:48.023Z,99.32
2022-11-22T15:09:14.153Z,91.32
2022-11-22T15:09:22.563Z,57.20
2022-11-22T15:11:35.833Z,53.78
2022-11-22T15:57:34.946Z,64.07
2022-11-22T16:00:27.334Z,57.60
2022-11-22T16:03:27.088Z,55.63
2022-11-22T16:06:30.890Z,42.13
2022-11-22T16:09:35.553Z,61.40
2022-11-22T16:12:32.069Z,54.63
2022-11-22T16:15:30.486Z,42.75
2022-11-22T16:18:28.286Z,40.08
2022-11-22T16:21:31.714Z,47.70
2022-11-22T16:27:16.337Z,30.83
2022-11-22T16:30:13.088Z,33.65
2022-11-22T16:33:02.304Z,37.00
2022-11-22T16:35:55.394Z,32.05
2022-11-22T16:38:46.433Z,36.40
2022-11-22T16:41:36.568Z,35.95
2022-11-22T16:44:26.200Z,35.13
2022-11-22T16:47:19.500Z,44.15
2022-11-22T16:50:13.668Z,43.40
2022-11-22T16:53:03.155Z,40.78
2022-11-22T16:55:54.018Z,51.65
2022-11-22T16:58:43.479Z,37.03
2022-11-22T17:01:35.754Z,38.15
2022-11-22T17:04:27.101Z,50.90
2022-11-22T17:07:17.085Z,49.90
2022-11-22T17:10:07.836Z,35.22
2022-11-22T17:12:58.752Z,34.22
2022-11-22T17:15:48.779Z,45.90
2022-11-22T17:18:38.451Z,46.72
2022-11-22T17:21:35.848Z,40.30
2022-11-22T17:24:26.894Z,121.38
2022-11-22T17:27:16.460Z,81.05
2022-11-22T17:30:09.515Z,25.65
2022-11-22T17:32:58.963Z,52.88
2022-11-22T17:35:48.308Z,49.33
2022-11-22T17:38:37.533Z,29.90
2022-11-22T17:41:27.469Z,28.02
2022-11-22T17:44:19.381Z,36.50
2022-11-22T17:47:10.131Z,43.45
2022-11-22T17:49:59.459Z,39.50
2022-11-22T17:52:48.978Z,36.72
2022-11-22T17:56:08.900Z,70.50
2022-11-22T17:58:49.852Z,37.72
2022-11-22T18:01:39.224Z,40.75
2022-11-22T18:04:30.352Z,67.65
2022-11-22T18:07:20.853Z,38.17
2022-11-22T18:10:11.712Z,54.33
2022-11-22T18:13:20.824Z,60.70
2022-11-22T18:16:14.779Z,48.65
2022-11-22T18:19:04.081Z,43.55
2022-11-22T18:21:54.706Z,52.00
2022-11-22T18:24:44.209Z,55.58
2022-11-22T18:27:40.709Z,86.00
2022-11-22T18:30:34.335Z,55.00
2022-11-22T18:33:23.858Z,59.22
2022-11-22T18:39:38.520Z,120.18
2022-11-22T18:42:28.311Z,82.57
2022-11-22T18:45:19.789Z,70.18
2022-11-22T18:48:09.234Z,86.88
2022-11-22T18:51:03.704Z,85.82
2022-11-22T18:53:53.069Z,80.25
2022-11-22T18:56:43.878Z,88.57
2022-11-22T18:59:33.336Z,78.22
2022-11-22T19:02:25.947Z,81.88
2022-11-22T19:05:15.328Z,77.97
2022-11-22T19:08:04.632Z,84.57
2022-11-22T19:10:58.313Z,93.55
2022-11-22T19:13:49.328Z,84.18
2022-11-22T19:16:38.761Z,84.35
2022-11-22T19:19:32.250Z,81.22
2022-11-22T19:22:21.589Z,79.00
2022-11-22T19:25:11.373Z,88.57
2022-11-22T19:28:00.566Z,107.57
2022-11-22T19:30:51.392Z,121.60
2022-11-22T19:33:41.043Z,132.90
2022-11-22T19:36:33.773Z,119.28
2022-11-22T19:39:23.372Z,149.48
2022-11-22T19:42:13.215Z,152.65
2022-11-22T19:45:03.343Z,152.15
2022-11-22T19:47:54.083Z,124.30
2022-11-22T19:50:43.825Z,127.85
2022-11-22T19:53:33.158Z,132.23
2022-11-22T19:56:22.890Z,126.50
2022-11-22T19:59:16.078Z,127.78
2022-11-22T20:02:05.371Z,134.65
2022-11-22T20:04:56.897Z,143.68
2022-11-22T20:07:46.303Z,151.13
2022-11-22T20:10:38.397Z,148.27
2022-11-22T20:13:27.768Z,142.13
2022-11-22T20:16:22.164Z,131.77
2022-11-22T20:19:12.754Z,122.68
2022-11-22T20:22:07.166Z,123.78
2022-11-22T20:24:56.672Z,115.03
2022-11-22T20:27:46.133Z,111.03
2022-11-22T20:30:35.924Z,65.90
2022-11-22T20:33:26.175Z,63.80
2022-11-22T20:36:18.710Z,48.45
2022-11-22T20:39:10.947Z,51.78
2022-11-22T20:42:32.117Z,51.97
2022-11-22T20:45:11.096Z,72.53
2022-11-22T20:48:00.463Z,80.60
2022-11-22T20:50:52.268Z,84.40
2022-11-22T20:53:42.111Z,114.68
2022-11-22T20:56:33.383Z,155.55
2022-11-22T20:59:22.725Z,129.40
2022-11-22T21:02:12.403Z,109.30
2022-11-22T21:05:01.777Z,101.15
2022-11-22T21:07:51.270Z,91.90
2022-11-22T21:10:40.719Z,96.10
2022-11-22T21:13:32.239Z,93.68
2022-11-22T21:16:25.119Z,93.47
2022-11-22T21:19:15.026Z,89.72
2022-11-22T21:22:04.391Z,97.38
2022-11-22T21:24:53.732Z,102.72
2022-11-22T21:27:43.221Z,145.02
2022-11-22T21:30:33.946Z,152.00
2022-11-22T21:33:23.885Z,153.02
2022-11-22T21:36:13.541Z,148.18
2022-11-22T21:39:03.097Z,155.30
2022-11-22T21:41:52.468Z,146.25
2022-11-22T21:44:41.818Z,159.80
2022-11-22T21:47:32.880Z,140.98
2022-11-22T21:50:22.455Z,144.18
2022-11-22T21:53:11.954Z,141.52
2022-11-22T21:56:03.983Z,150.07
2022-11-22T21:58:53.496Z,153.07
2022-11-22T22:01:42.885Z,152.80
2022-11-22T22:04:33.886Z,155.00
2022-11-22T22:07:45.107Z,169.18
2022-11-22T22:10:32.773Z,187.73
2022-11-22T22:13:22.022Z,182.45
2022-11-22T22:16:18.877Z,193.90
2022-11-22T22:19:09.575Z,178.65
2022-11-22T22:22:00.586Z,176.18
2022-11-22T22:24:50.235Z,237.70
2022-11-22T22:27:39.545Z,208.13
2022-11-22T22:30:28.804Z,205.13
2022-11-22T22:33:18.237Z,178.55
2022-11-22T22:36:09.549Z,175.52
2022-11-22T22:39:00.362Z,163.23
2022-11-22T22:41:49.732Z,171.63
2022-11-22T22:44:39.049Z,229.57
2022-11-22T22:47:30.942Z,233.75
2022-11-22T22:50:21.652Z,221.48
2022-11-22T22:53:11.098Z,204.10
2022-11-22T22:56:02.260Z,204.00
2022-11-22T22:58:56.171Z,183.05
2022-11-22T23:01:45.487Z,204.23
2022-11-22T23:04:34.938Z,196.63
2022-11-22T23:07:24.272Z,173.02
2022-11-22T23:10:13.704Z,175.40
2022-11-22T23:13:04.706Z,180.68
2022-11-22T23:15:58.282Z,155.98
2022-11-22T23:18:48.159Z,114.32
2022-11-22T23:21:37.913Z,72.00
2022-11-22T23:24:27.439Z,31.00
2022-11-22T23:27:16.686Z,22.75
2022-11-22T23:30:09.807Z,23.30
2022-11-22T23:35:48.260Z,22.05
2022-11-22T23:38:37.836Z,22.67
2022-11-22T23:41:27.327Z,23.45
2022-11-22T23:44:16.649Z,23.63
2022-11-22T23:47:07.423Z,21.90
2022-11-22T23:49:56.771Z,34.35
2022-11-22T23:52:46.226Z,40.97
2022-11-22T23:55:35.605Z,17.35
2022-11-22T23:58:24.854Z,18.50
